sensor_id;sensor_type;location;lat;lon;timestamp;temperature;humidity
31263;DHT22;17892;52.080;9.006;2024-03-08T00:02:16;0.70;99.90
31263;DHT22;17892;52.080;9.006;2024-03-08T00:04:42;0.70;99.90
31263;DHT22;17892;52.080;9.006;2024-03-08T00:07:08;0.70;99.90
31263;DHT22;17892;52.080;9.006;2024-03-08T00:09:33;0.70;99.90
31263;DHT22;17892;52.080;9.006;2024-03-08T00:11:59;0.70;99.90
31263;DHT22;17892;52.080;9.006;2024-03-08T00:14:25;0.70;99.90
31263;DHT22;17892;52.080;9.006;2024-03-08T00:16:51;0.70;99.90
31263;DHT22;17892;52.080;9.006;2024-03-08T00:19:18;0.60;99.90
31263;DHT22;17892;52.080;9.006;2024-03-08T00:21:44;0.60;99.90
31263;DHT22;17892;52.080;9.006;2024-03-08T00:24:10;0.50;99.90
31263;DHT22;17892;52.080;9.006;2024-03-08T00:26:36;0.50;99.90
31263;DHT22;17892;52.080;9.006;2024-03-08T00:29:01;0.50;99.90
31263;DHT22;17892;52.080;9.006;2024-03-08T00:31:28;0.40;99.90
31263;DHT22;17892;52.080;9.006;2024-03-08T00:33:56;0.40;99.90
31263;DHT22;17892;52.080;9.006;2024-03-08T00:36:22;0.30;99.90
31263;DHT22;17892;52.080;9.006;2024-03-08T00:38:48;0.30;99.90
31263;DHT22;17892;52.080;9.006;2024-03-08T00:41:14;0.30;99.90
31263;DHT22;17892;52.080;9.006;2024-03-08T00:43:39;0.30;99.90
31263;DHT22;17892;52.080;9.006;2024-03-08T00:46:05;0.30;99.90
31263;DHT22;17892;52.080;9.006;2024-03-08T00:48:30;0.30;99.90
31263;DHT22;17892;52.080;9.006;2024-03-08T00:50:57;0.30;99.90
31263;DHT22;17892;52.080;9.006;2024-03-08T00:53:22;0.30;99.90
31263;DHT22;17892;52.080;9.006;2024-03-08T00:55:48;0.20;99.90
31263;DHT22;17892;52.080;9.006;2024-03-08T00:58:14;0.20;99.90
31263;DHT22;17892;52.080;9.006;2024-03-08T01:00:40;0.20;99.90
31263;DHT22;17892;52.080;9.006;2024-03-08T01:03:06;0.20;99.90
31263;DHT22;17892;52.080;9.006;2024-03-08T01:05:32;0.20;99.90
31263;DHT22;17892;52.080;9.006;2024-03-08T01:07:58;0.10;99.90
31263;DHT22;17892;52.080;9.006;2024-03-08T01:10:23;0.10;99.90
31263;DHT22;17892;52.080;9.006;2024-03-08T01:12:49;0.10;99.90
31263;DHT22;17892;52.080;9.006;2024-03-08T01:15:19;0.00;99.90
31263;DHT22;17892;52.080;9.006;2024-03-08T01:17:45;0.00;99.90
31263;DHT22;17892;52.080;9.006;2024-03-08T01:20:11;0.00;99.90
31263;DHT22;17892;52.080;9.006;2024-03-08T01:22:37;0.00;99.90
31263;DHT22;17892;52.080;9.006;2024-03-08T01:25:04;-0.10;99.90
31263;DHT22;17892;52.080;9.006;2024-03-08T01:27:30;-0.10;99.90
31263;DHT22;17892;52.080;9.006;2024-03-08T01:29:56;-0.10;99.90
31263;DHT22;17892;52.080;9.006;2024-03-08T01:32:24;-0.10;99.90
31263;DHT22;17892;52.080;9.006;2024-03-08T01:34:50;-0.10;99.90
31263;DHT22;17892;52.080;9.006;2024-03-08T01:37:16;0.00;99.90
31263;DHT22;17892;52.080;9.006;2024-03-08T01:39:41;0.00;99.90
31263;DHT22;17892;52.080;9.006;2024-03-08T01:42:07;0.00;99.90
31263;DHT22;17892;52.080;9.006;2024-03-08T01:44:33;0.00;99.90
31263;DHT22;17892;52.080;9.006;2024-03-08T01:46:59;0.10;99.90
31263;DHT22;17892;52.080;9.006;2024-03-08T01:49:25;0.20;99.90
31263;DHT22;17892;52.080;9.006;2024-03-08T01:51:52;0.30;99.90
31263;DHT22;17892;52.080;9.006;2024-03-08T01:54:18;0.40;99.90
31263;DHT22;17892;52.080;9.006;2024-03-08T01:56:45;0.40;99.90
31263;DHT22;17892;52.080;9.006;2024-03-08T01:59:12;0.50;99.90
31263;DHT22;17892;52.080;9.006;2024-03-08T02:01:39;0.50;99.90
31263;DHT22;17892;52.080;9.006;2024-03-08T02:04:05;0.60;99.90
31263;DHT22;17892;52.080;9.006;2024-03-08T02:06:32;0.60;99.90
31263;DHT22;17892;52.080;9.006;2024-03-08T02:08:58;0.60;99.90
31263;DHT22;17892;52.080;9.006;2024-03-08T02:11:24;0.60;99.90
31263;DHT22;17892;52.080;9.006;2024-03-08T02:13:49;0.60;99.90
31263;DHT22;17892;52.080;9.006;2024-03-08T02:16:21;0.50;99.90
31263;DHT22;17892;52.080;9.006;2024-03-08T02:18:47;0.50;99.90
31263;DHT22;17892;52.080;9.006;2024-03-08T02:21:13;0.50;99.90
31263;DHT22;17892;52.080;9.006;2024-03-08T02:23:43;0.50;99.90
31263;DHT22;17892;52.080;9.006;2024-03-08T02:26:09;0.40;99.90
31263;DHT22;17892;52.080;9.006;2024-03-08T02:28:35;0.40;99.90
31263;DHT22;17892;52.080;9.006;2024-03-08T02:31:00;0.40;99.90
31263;DHT22;17892;52.080;9.006;2024-03-08T02:33:28;0.40;99.90
31263;DHT22;17892;52.080;9.006;2024-03-08T02:35:54;0.40;99.90
31263;DHT22;17892;52.080;9.006;2024-03-08T02:38:22;0.30;99.90
31263;DHT22;17892;52.080;9.006;2024-03-08T02:40:51;0.30;99.90
31263;DHT22;17892;52.080;9.006;2024-03-08T02:43:19;0.30;99.90
31263;DHT22;17892;52.080;9.006;2024-03-08T02:45:45;0.30;99.90
31263;DHT22;17892;52.080;9.006;2024-03-08T02:48:12;0.20;99.90
31263;DHT22;17892;52.080;9.006;2024-03-08T02:50:38;0.20;99.90
31263;DHT22;17892;52.080;9.006;2024-03-08T02:53:11;0.20;99.90
31263;DHT22;17892;52.080;9.006;2024-03-08T02:55:38;0.20;99.90
31263;DHT22;17892;52.080;9.006;2024-03-08T02:58:04;0.30;99.90
31263;DHT22;17892;52.080;9.006;2024-03-08T03:00:30;0.30;99.90
31263;DHT22;17892;52.080;9.006;2024-03-08T03:02:57;0.30;99.90
31263;DHT22;17892;52.080;9.006;2024-03-08T03:05:23;0.40;99.90
31263;DHT22;17892;52.080;9.006;2024-03-08T03:07:49;0.50;99.90
31263;DHT22;17892;52.080;9.006;2024-03-08T03:10:19;0.50;99.90
31263;DHT22;17892;52.080;9.006;2024-03-08T03:12:47;0.50;99.90
31263;DHT22;17892;52.080;9.006;2024-03-08T03:15:14;0.50;99.90
31263;DHT22;17892;52.080;9.006;2024-03-08T03:17:40;0.50;99.90
31263;DHT22;17892;52.080;9.006;2024-03-08T03:20:07;0.50;99.90
31263;DHT22;17892;52.080;9.006;2024-03-08T03:22:39;0.50;99.90
31263;DHT22;17892;52.080;9.006;2024-03-08T03:25:09;0.50;99.90
31263;DHT22;17892;52.080;9.006;2024-03-08T03:27:35;0.60;99.90
31263;DHT22;17892;52.080;9.006;2024-03-08T03:30:01;0.60;99.90
31263;DHT22;17892;52.080;9.006;2024-03-08T03:32:49;0.60;99.90
31263;DHT22;17892;52.080;9.006;2024-03-08T03:35:19;0.70;99.90
31263;DHT22;17892;52.080;9.006;2024-03-08T03:37:46;0.80;99.90
31263;DHT22;17892;52.080;9.006;2024-03-08T03:40:17;0.90;99.90
31263;DHT22;17892;52.080;9.006;2024-03-08T03:42:44;1.00;99.90
31263;DHT22;17892;52.080;9.006;2024-03-08T03:45:10;1.10;99.90
31263;DHT22;17892;52.080;9.006;2024-03-08T03:47:36;1.10;99.90
31263;DHT22;17892;52.080;9.006;2024-03-08T03:50:04;1.20;99.90
31263;DHT22;17892;52.080;9.006;2024-03-08T03:52:31;1.30;99.90
31263;DHT22;17892;52.080;9.006;2024-03-08T03:54:57;1.40;99.90
31263;DHT22;17892;52.080;9.006;2024-03-08T03:57:23;1.50;99.90
31263;DHT22;17892;52.080;9.006;2024-03-08T03:59:49;1.60;99.90
31263;DHT22;17892;52.080;9.006;2024-03-08T04:02:16;1.60;99.90
31263;DHT22;17892;52.080;9.006;2024-03-08T04:04:42;1.60;99.90
31263;DHT22;17892;52.080;9.006;2024-03-08T04:07:09;1.70;99.90
31263;DHT22;17892;52.080;9.006;2024-03-08T04:09:35;1.70;99.90
31263;DHT22;17892;52.080;9.006;2024-03-08T04:12:01;1.70;99.90
31263;DHT22;17892;52.080;9.006;2024-03-08T04:14:26;1.80;99.90
31263;DHT22;17892;52.080;9.006;2024-03-08T04:16:52;1.70;99.90
31263;DHT22;17892;52.080;9.006;2024-03-08T04:19:18;1.70;99.90
31263;DHT22;17892;52.080;9.006;2024-03-08T04:21:44;1.70;99.90
31263;DHT22;17892;52.080;9.006;2024-03-08T04:24:10;1.70;99.90
31263;DHT22;17892;52.080;9.006;2024-03-08T04:26:36;1.60;99.90
31263;DHT22;17892;52.080;9.006;2024-03-08T04:29:01;1.60;99.90
31263;DHT22;17892;52.080;9.006;2024-03-08T04:31:27;1.50;99.90
31263;DHT22;17892;52.080;9.006;2024-03-08T04:33:52;1.50;99.90
31263;DHT22;17892;52.080;9.006;2024-03-08T04:36:18;1.40;99.90
31263;DHT22;17892;52.080;9.006;2024-03-08T04:38:45;1.40;99.90
31263;DHT22;17892;52.080;9.006;2024-03-08T04:41:11;1.40;99.90
31263;DHT22;17892;52.080;9.006;2024-03-08T04:43:36;1.30;99.90
31263;DHT22;17892;52.080;9.006;2024-03-08T04:46:02;1.30;99.90
31263;DHT22;17892;52.080;9.006;2024-03-08T04:48:29;1.30;99.90
31263;DHT22;17892;52.080;9.006;2024-03-08T04:50:54;1.20;99.90
31263;DHT22;17892;52.080;9.006;2024-03-08T04:53:21;1.20;99.90
31263;DHT22;17892;52.080;9.006;2024-03-08T04:55:46;1.20;99.90
31263;DHT22;17892;52.080;9.006;2024-03-08T04:58:12;1.20;99.90
31263;DHT22;17892;52.080;9.006;2024-03-08T05:00:38;1.20;99.90
31263;DHT22;17892;52.080;9.006;2024-03-08T05:03:04;1.20;99.90
31263;DHT22;17892;52.080;9.006;2024-03-08T05:05:30;1.20;99.90
31263;DHT22;17892;52.080;9.006;2024-03-08T05:07:56;1.20;99.90
31263;DHT22;17892;52.080;9.006;2024-03-08T05:10:22;1.20;99.90
31263;DHT22;17892;52.080;9.006;2024-03-08T05:12:47;1.20;99.90
31263;DHT22;17892;52.080;9.006;2024-03-08T05:15:13;1.30;99.90
31263;DHT22;17892;52.080;9.006;2024-03-08T05:17:39;1.30;99.90
31263;DHT22;17892;52.080;9.006;2024-03-08T05:20:06;1.40;99.90
31263;DHT22;17892;52.080;9.006;2024-03-08T05:22:37;1.40;99.90
31263;DHT22;17892;52.080;9.006;2024-03-08T05:25:03;1.50;99.90
31263;DHT22;17892;52.080;9.006;2024-03-08T05:27:29;1.50;99.90
31263;DHT22;17892;52.080;9.006;2024-03-08T05:29:55;1.60;99.90
31263;DHT22;17892;52.080;9.006;2024-03-08T05:32:21;1.60;99.90
31263;DHT22;17892;52.080;9.006;2024-03-08T05:34:46;1.60;99.90
31263;DHT22;17892;52.080;9.006;2024-03-08T05:37:12;1.60;99.90
31263;DHT22;17892;52.080;9.006;2024-03-08T05:39:37;1.60;99.90
31263;DHT22;17892;52.080;9.006;2024-03-08T05:42:03;1.60;99.90
31263;DHT22;17892;52.080;9.006;2024-03-08T05:44:29;1.70;99.90
31263;DHT22;17892;52.080;9.006;2024-03-08T05:46:56;1.60;99.90
31263;DHT22;17892;52.080;9.006;2024-03-08T05:49:21;1.60;99.90
31263;DHT22;17892;52.080;9.006;2024-03-08T05:51:47;1.60;99.90
31263;DHT22;17892;52.080;9.006;2024-03-08T05:54:13;1.60;99.90
31263;DHT22;17892;52.080;9.006;2024-03-08T05:56:40;1.60;99.90
31263;DHT22;17892;52.080;9.006;2024-03-08T05:59:09;1.60;99.90
31263;DHT22;17892;52.080;9.006;2024-03-08T06:01:36;1.60;99.90
31263;DHT22;17892;52.080;9.006;2024-03-08T06:04:02;1.60;99.90
31263;DHT22;17892;52.080;9.006;2024-03-08T06:06:29;1.60;99.90
31263;DHT22;17892;52.080;9.006;2024-03-08T06:08:55;1.60;99.90
31263;DHT22;17892;52.080;9.006;2024-03-08T06:11:25;1.60;99.90
31263;DHT22;17892;52.080;9.006;2024-03-08T06:13:55;1.60;99.90
31263;DHT22;17892;52.080;9.006;2024-03-08T06:16:25;1.60;99.90
31263;DHT22;17892;52.080;9.006;2024-03-08T06:18:57;1.60;99.90
31263;DHT22;17892;52.080;9.006;2024-03-08T06:21:23;1.60;99.90
31263;DHT22;17892;52.080;9.006;2024-03-08T06:23:53;1.70;99.90
31263;DHT22;17892;52.080;9.006;2024-03-08T06:26:20;1.70;99.90
31263;DHT22;17892;52.080;9.006;2024-03-08T06:28:47;1.70;99.90
31263;DHT22;17892;52.080;9.006;2024-03-08T06:31:13;1.70;99.90
31263;DHT22;17892;52.080;9.006;2024-03-08T06:33:40;1.70;99.90
31263;DHT22;17892;52.080;9.006;2024-03-08T06:36:05;1.80;99.90
31263;DHT22;17892;52.080;9.006;2024-03-08T06:38:31;1.90;99.90
31263;DHT22;17892;52.080;9.006;2024-03-08T06:40:57;1.90;99.90
31263;DHT22;17892;52.080;9.006;2024-03-08T06:43:22;2.10;99.90
31263;DHT22;17892;52.080;9.006;2024-03-08T06:45:50;2.10;99.90
31263;DHT22;17892;52.080;9.006;2024-03-08T06:48:16;2.30;99.90
31263;DHT22;17892;52.080;9.006;2024-03-08T06:50:44;2.40;99.90
31263;DHT22;17892;52.080;9.006;2024-03-08T06:53:10;2.60;99.90
31263;DHT22;17892;52.080;9.006;2024-03-08T06:55:36;2.90;99.90
31263;DHT22;17892;52.080;9.006;2024-03-08T06:58:02;3.10;99.90
31263;DHT22;17892;52.080;9.006;2024-03-08T07:00:28;3.30;99.90
31263;DHT22;17892;52.080;9.006;2024-03-08T07:02:56;3.50;99.90
31263;DHT22;17892;52.080;9.006;2024-03-08T07:05:26;3.70;99.90
31263;DHT22;17892;52.080;9.006;2024-03-08T07:07:52;3.90;99.90
31263;DHT22;17892;52.080;9.006;2024-03-08T07:10:20;4.10;99.90
31263;DHT22;17892;52.080;9.006;2024-03-08T07:12:49;4.20;99.90
31263;DHT22;17892;52.080;9.006;2024-03-08T07:15:15;4.40;99.90
31263;DHT22;17892;52.080;9.006;2024-03-08T07:17:41;4.50;99.90
31263;DHT22;17892;52.080;9.006;2024-03-08T07:20:10;4.70;99.90
31263;DHT22;17892;52.080;9.006;2024-03-08T07:22:37;4.80;99.90
31263;DHT22;17892;52.080;9.006;2024-03-08T07:25:05;5.00;99.90
31263;DHT22;17892;52.080;9.006;2024-03-08T07:27:54;5.10;99.90
31263;DHT22;17892;52.080;9.006;2024-03-08T07:30:25;5.20;99.90
31263;DHT22;17892;52.080;9.006;2024-03-08T07:33:10;5.30;99.90
31263;DHT22;17892;52.080;9.006;2024-03-08T07:35:39;5.50;99.90
31263;DHT22;17892;52.080;9.006;2024-03-08T07:38:09;5.60;99.90
31263;DHT22;17892;52.080;9.006;2024-03-08T07:40:38;5.70;99.90
31263;DHT22;17892;52.080;9.006;2024-03-08T07:43:09;5.80;99.90
31263;DHT22;17892;52.080;9.006;2024-03-08T07:45:36;5.90;99.90
31263;DHT22;17892;52.080;9.006;2024-03-08T07:48:05;6.00;99.90
31263;DHT22;17892;52.080;9.006;2024-03-08T07:50:38;6.10;99.90
31263;DHT22;17892;52.080;9.006;2024-03-08T07:53:05;6.20;99.90
31263;DHT22;17892;52.080;9.006;2024-03-08T07:55:34;6.30;99.90
31263;DHT22;17892;52.080;9.006;2024-03-08T07:58:04;6.50;99.90
31263;DHT22;17892;52.080;9.006;2024-03-08T08:00:30;6.60;99.90
31263;DHT22;17892;52.080;9.006;2024-03-08T08:02:57;6.80;99.90
31263;DHT22;17892;52.080;9.006;2024-03-08T08:05:22;6.90;99.90
31263;DHT22;17892;52.080;9.006;2024-03-08T08:07:48;7.00;99.90
31263;DHT22;17892;52.080;9.006;2024-03-08T08:10:15;7.10;99.90
31263;DHT22;17892;52.080;9.006;2024-03-08T08:12:49;7.30;99.90
31263;DHT22;17892;52.080;9.006;2024-03-08T08:15:15;7.50;99.90
31263;DHT22;17892;52.080;9.006;2024-03-08T08:17:44;7.70;99.90
31263;DHT22;17892;52.080;9.006;2024-03-08T08:20:11;7.80;98.30
31263;DHT22;17892;52.080;9.006;2024-03-08T08:22:42;8.00;99.90
31263;DHT22;17892;52.080;9.006;2024-03-08T08:25:10;8.00;99.90
31263;DHT22;17892;52.080;9.006;2024-03-08T08:27:38;8.00;99.90
31263;DHT22;17892;52.080;9.006;2024-03-08T08:30:11;8.20;99.90
31263;DHT22;17892;52.080;9.006;2024-03-08T08:32:37;8.30;95.10
31263;DHT22;17892;52.080;9.006;2024-03-08T08:35:05;8.40;99.90
31263;DHT22;17892;52.080;9.006;2024-03-08T08:37:38;8.40;99.90
31263;DHT22;17892;52.080;9.006;2024-03-08T08:40:05;8.50;99.90
31263;DHT22;17892;52.080;9.006;2024-03-08T08:42:38;8.70;99.90
31263;DHT22;17892;52.080;9.006;2024-03-08T08:45:05;8.80;99.90
31263;DHT22;17892;52.080;9.006;2024-03-08T08:47:34;9.00;99.90
31263;DHT22;17892;52.080;9.006;2024-03-08T08:50:01;9.20;99.90
31263;DHT22;17892;52.080;9.006;2024-03-08T08:52:27;9.40;99.90
31263;DHT22;17892;52.080;9.006;2024-03-08T08:54:54;9.70;99.90
31263;DHT22;17892;52.080;9.006;2024-03-08T08:57:20;10.00;99.90
31263;DHT22;17892;52.080;9.006;2024-03-08T08:59:45;10.10;99.90
31263;DHT22;17892;52.080;9.006;2024-03-08T09:02:11;10.40;99.90
31263;DHT22;17892;52.080;9.006;2024-03-08T09:04:38;10.50;99.70
31263;DHT22;17892;52.080;9.006;2024-03-08T09:07:04;10.70;99.90
31263;DHT22;17892;52.080;9.006;2024-03-08T09:09:32;10.70;99.70
31263;DHT22;17892;52.080;9.006;2024-03-08T09:11:58;10.60;97.30
31263;DHT22;17892;52.080;9.006;2024-03-08T09:14:23;10.60;98.00
31263;DHT22;17892;52.080;9.006;2024-03-08T09:16:51;10.60;98.30
31263;DHT22;17892;52.080;9.006;2024-03-08T09:19:17;10.50;97.10
31263;DHT22;17892;52.080;9.006;2024-03-08T09:21:44;10.50;97.40
31263;DHT22;17892;52.080;9.006;2024-03-08T09:24:10;10.50;98.60
31263;DHT22;17892;52.080;9.006;2024-03-08T09:26:36;10.40;98.00
31263;DHT22;17892;52.080;9.006;2024-03-08T09:29:02;10.40;96.20
31263;DHT22;17892;52.080;9.006;2024-03-08T09:31:28;10.40;97.70
31263;DHT22;17892;52.080;9.006;2024-03-08T09:33:54;10.50;99.00
31263;DHT22;17892;52.080;9.006;2024-03-08T09:36:20;10.50;95.80
31263;DHT22;17892;52.080;9.006;2024-03-08T09:38:45;10.70;97.70
31263;DHT22;17892;52.080;9.006;2024-03-08T09:41:12;10.80;96.60
31263;DHT22;17892;52.080;9.006;2024-03-08T09:43:38;10.90;98.70
31263;DHT22;17892;52.080;9.006;2024-03-08T09:46:04;11.00;97.60
31263;DHT22;17892;52.080;9.006;2024-03-08T09:48:33;11.10;98.10
31263;DHT22;17892;52.080;9.006;2024-03-08T09:51:00;11.30;91.40
31263;DHT22;17892;52.080;9.006;2024-03-08T09:53:26;11.40;98.40
31263;DHT22;17892;52.080;9.006;2024-03-08T09:55:52;11.60;99.10
31263;DHT22;17892;52.080;9.006;2024-03-08T09:58:17;11.70;98.40
31263;DHT22;17892;52.080;9.006;2024-03-08T10:00:59;11.80;96.20
31263;DHT22;17892;52.080;9.006;2024-03-08T10:03:28;11.70;95.70
31263;DHT22;17892;52.080;9.006;2024-03-08T10:05:56;11.60;95.10
31263;DHT22;17892;52.080;9.006;2024-03-08T10:08:28;11.60;94.00
31263;DHT22;17892;52.080;9.006;2024-03-08T10:10:55;11.30;93.40
31263;DHT22;17892;52.080;9.006;2024-03-08T10:13:23;11.30;88.80
31263;DHT22;17892;52.080;9.006;2024-03-08T10:15:51;11.30;94.10
31263;DHT22;17892;52.080;9.006;2024-03-08T10:18:16;11.40;94.80
31263;DHT22;17892;52.080;9.006;2024-03-08T10:20:42;11.40;95.40
31263;DHT22;17892;52.080;9.006;2024-03-08T10:23:08;11.60;97.40
31263;DHT22;17892;52.080;9.006;2024-03-08T10:25:35;11.60;93.80
31263;DHT22;17892;52.080;9.006;2024-03-08T10:28:05;11.70;96.60
31263;DHT22;17892;52.080;9.006;2024-03-08T10:30:31;11.90;96.40
31263;DHT22;17892;52.080;9.006;2024-03-08T10:32:57;12.00;96.00
31263;DHT22;17892;52.080;9.006;2024-03-08T10:35:24;12.20;98.60
31263;DHT22;17892;52.080;9.006;2024-03-08T10:37:51;12.40;98.30
31263;DHT22;17892;52.080;9.006;2024-03-08T10:40:28;12.60;99.80
31263;DHT22;17892;52.080;9.006;2024-03-08T10:42:55;12.80;92.60
31263;DHT22;17892;52.080;9.006;2024-03-08T10:45:34;12.70;93.80
31263;DHT22;17892;52.080;9.006;2024-03-08T10:48:26;12.70;94.80
31263;DHT22;17892;52.080;9.006;2024-03-08T10:50:57;12.80;93.60
31263;DHT22;17892;52.080;9.006;2024-03-08T10:53:27;12.80;93.80
31263;DHT22;17892;52.080;9.006;2024-03-08T10:55:56;12.70;91.20
31263;DHT22;17892;52.080;9.006;2024-03-08T10:58:24;12.80;93.50
31263;DHT22;17892;52.080;9.006;2024-03-08T11:00:53;12.80;95.10
31263;DHT22;17892;52.080;9.006;2024-03-08T11:06:18;12.90;92.90
31263;DHT22;17892;52.080;9.006;2024-03-08T11:08:49;13.00;93.10
31263;DHT22;17892;52.080;9.006;2024-03-08T11:11:26;13.00;94.30
31263;DHT22;17892;52.080;9.006;2024-03-08T11:13:56;13.10;90.30
31263;DHT22;17892;52.080;9.006;2024-03-08T11:18:58;13.10;91.50
31263;DHT22;17892;52.080;9.006;2024-03-08T11:21:31;13.10;90.40
31263;DHT22;17892;52.080;9.006;2024-03-08T11:24:10;13.00;90.30
31263;DHT22;17892;52.080;9.006;2024-03-08T11:26:37;12.90;88.50
31263;DHT22;17892;52.080;9.006;2024-03-08T11:32:17;12.70;84.90
31263;DHT22;17892;52.080;9.006;2024-03-08T11:34:48;12.70;90.00
31263;DHT22;17892;52.080;9.006;2024-03-08T11:37:19;12.70;87.80
31263;DHT22;17892;52.080;9.006;2024-03-08T11:39:54;12.70;90.30
31263;DHT22;17892;52.080;9.006;2024-03-08T11:42:25;12.80;89.40
31263;DHT22;17892;52.080;9.006;2024-03-08T11:44:54;12.80;91.00
31263;DHT22;17892;52.080;9.006;2024-03-08T11:47:20;12.90;91.60
31263;DHT22;17892;52.080;9.006;2024-03-08T11:49:46;13.00;91.10
31263;DHT22;17892;52.080;9.006;2024-03-08T11:52:17;13.00;91.70
31263;DHT22;17892;52.080;9.006;2024-03-08T11:54:51;13.00;87.10
31263;DHT22;17892;52.080;9.006;2024-03-08T11:57:19;12.90;86.40
31263;DHT22;17892;52.080;9.006;2024-03-08T11:59:54;12.90;90.80
31263;DHT22;17892;52.080;9.006;2024-03-08T12:02:22;12.90;88.70
31263;DHT22;17892;52.080;9.006;2024-03-08T12:04:56;13.10;92.70
31263;DHT22;17892;52.080;9.006;2024-03-08T12:07:23;13.10;85.10
31263;DHT22;17892;52.080;9.006;2024-03-08T12:12:52;13.20;82.70
31263;DHT22;17892;52.080;9.006;2024-03-08T12:15:20;13.10;86.50
31263;DHT22;17892;52.080;9.006;2024-03-08T12:17:49;13.00;85.70
31263;DHT22;17892;52.080;9.006;2024-03-08T12:20:23;13.00;87.20
31263;DHT22;17892;52.080;9.006;2024-03-08T12:22:54;13.10;90.90
31263;DHT22;17892;52.080;9.006;2024-03-08T12:25:33;13.20;92.10
31263;DHT22;17892;52.080;9.006;2024-03-08T12:28:08;13.20;85.40
31263;DHT22;17892;52.080;9.006;2024-03-08T12:30:51;13.30;86.00
31263;DHT22;17892;52.080;9.006;2024-03-08T12:33:22;13.10;84.10
31263;DHT22;17892;52.080;9.006;2024-03-08T12:35:55;13.00;87.30
31263;DHT22;17892;52.080;9.006;2024-03-08T12:38:27;12.90;82.70
31263;DHT22;17892;52.080;9.006;2024-03-08T12:40:58;12.80;82.50
31263;DHT22;17892;52.080;9.006;2024-03-08T12:43:24;12.80;89.20
31263;DHT22;17892;52.080;9.006;2024-03-08T12:45:50;12.80;87.70
31263;DHT22;17892;52.080;9.006;2024-03-08T12:48:18;12.70;87.40
31263;DHT22;17892;52.080;9.006;2024-03-08T12:50:46;12.80;90.40
31263;DHT22;17892;52.080;9.006;2024-03-08T12:53:13;13.00;90.10
31263;DHT22;17892;52.080;9.006;2024-03-08T12:55:39;13.00;89.80
31263;DHT22;17892;52.080;9.006;2024-03-08T12:58:06;13.00;89.70
31263;DHT22;17892;52.080;9.006;2024-03-08T13:00:36;13.10;88.60
31263;DHT22;17892;52.080;9.006;2024-03-08T13:03:02;13.10;89.20
31263;DHT22;17892;52.080;9.006;2024-03-08T13:05:28;13.20;91.20
31263;DHT22;17892;52.080;9.006;2024-03-08T13:07:55;13.30;87.00
31263;DHT22;17892;52.080;9.006;2024-03-08T13:10:22;13.20;84.10
31263;DHT22;17892;52.080;9.006;2024-03-08T13:12:48;13.10;86.40
31263;DHT22;17892;52.080;9.006;2024-03-08T13:15:14;13.10;89.60
31263;DHT22;17892;52.080;9.006;2024-03-08T13:17:46;13.10;86.50
31263;DHT22;17892;52.080;9.006;2024-03-08T13:20:13;13.00;86.60
31263;DHT22;17892;52.080;9.006;2024-03-08T13:22:45;12.80;83.00
31263;DHT22;17892;52.080;9.006;2024-03-08T13:25:12;12.90;89.30
31263;DHT22;17892;52.080;9.006;2024-03-08T13:27:42;12.90;86.60
31263;DHT22;17892;52.080;9.006;2024-03-08T13:30:09;12.90;88.10
31263;DHT22;17892;52.080;9.006;2024-03-08T13:32:42;12.90;88.30
31263;DHT22;17892;52.080;9.006;2024-03-08T13:35:11;12.80;84.40
31263;DHT22;17892;52.080;9.006;2024-03-08T13:37:44;12.80;87.20
31263;DHT22;17892;52.080;9.006;2024-03-08T13:40:10;12.80;88.50
31263;DHT22;17892;52.080;9.006;2024-03-08T13:42:42;12.90;87.60
31263;DHT22;17892;52.080;9.006;2024-03-08T13:45:11;12.90;89.10
31263;DHT22;17892;52.080;9.006;2024-03-08T13:47:37;13.10;90.60
31263;DHT22;17892;52.080;9.006;2024-03-08T13:50:05;13.20;89.70
31263;DHT22;17892;52.080;9.006;2024-03-08T13:52:33;13.10;85.80
31263;DHT22;17892;52.080;9.006;2024-03-08T13:55:00;13.10;88.60
31263;DHT22;17892;52.080;9.006;2024-03-08T13:57:26;13.10;89.20
31263;DHT22;17892;52.080;9.006;2024-03-08T13:59:53;13.00;86.80
31263;DHT22;17892;52.080;9.006;2024-03-08T14:02:19;13.00;88.40
31263;DHT22;17892;52.080;9.006;2024-03-08T14:04:44;12.90;87.50
31263;DHT22;17892;52.080;9.006;2024-03-08T14:07:10;12.70;83.50
31263;DHT22;17892;52.080;9.006;2024-03-08T14:09:37;12.50;85.70
31263;DHT22;17892;52.080;9.006;2024-03-08T14:12:04;12.40;87.10
31263;DHT22;17892;52.080;9.006;2024-03-08T14:14:33;12.30;85.50
31263;DHT22;17892;52.080;9.006;2024-03-08T14:17:03;12.10;86.40
31263;DHT22;17892;52.080;9.006;2024-03-08T14:19:29;12.10;88.50
31263;DHT22;17892;52.080;9.006;2024-03-08T14:21:59;12.00;87.20
31263;DHT22;17892;52.080;9.006;2024-03-08T14:24:25;12.00;89.70
31263;DHT22;17892;52.080;9.006;2024-03-08T14:26:51;12.10;89.90
31263;DHT22;17892;52.080;9.006;2024-03-08T14:29:17;12.20;90.10
31263;DHT22;17892;52.080;9.006;2024-03-08T14:31:45;12.30;89.90
31263;DHT22;17892;52.080;9.006;2024-03-08T14:34:11;12.40;89.50
31263;DHT22;17892;52.080;9.006;2024-03-08T14:36:39;12.40;90.00
31263;DHT22;17892;52.080;9.006;2024-03-08T14:39:05;12.50;86.90
31263;DHT22;17892;52.080;9.006;2024-03-08T14:41:33;12.40;88.80
31263;DHT22;17892;52.080;9.006;2024-03-08T14:43:59;12.30;88.80
31263;DHT22;17892;52.080;9.006;2024-03-08T14:46:25;12.30;89.30
31263;DHT22;17892;52.080;9.006;2024-03-08T14:48:52;12.30;90.20
31263;DHT22;17892;52.080;9.006;2024-03-08T14:51:21;12.30;90.10
31263;DHT22;17892;52.080;9.006;2024-03-08T14:53:52;12.30;88.80
31263;DHT22;17892;52.080;9.006;2024-03-08T14:56:20;12.30;88.60
31263;DHT22;17892;52.080;9.006;2024-03-08T14:58:46;12.20;87.50
31263;DHT22;17892;52.080;9.006;2024-03-08T15:01:15;12.00;89.00
31263;DHT22;17892;52.080;9.006;2024-03-08T15:03:41;11.80;88.80
31263;DHT22;17892;52.080;9.006;2024-03-08T15:06:10;11.70;89.50
31263;DHT22;17892;52.080;9.006;2024-03-08T15:08:37;11.70;90.30
31263;DHT22;17892;52.080;9.006;2024-03-08T15:11:04;11.70;90.50
31263;DHT22;17892;52.080;9.006;2024-03-08T15:13:31;11.80;90.80
31263;DHT22;17892;52.080;9.006;2024-03-08T15:16:08;11.80;90.30
31263;DHT22;17892;52.080;9.006;2024-03-08T15:18:35;11.80;90.40
31263;DHT22;17892;52.080;9.006;2024-03-08T15:21:05;11.80;90.40
31263;DHT22;17892;52.080;9.006;2024-03-08T15:23:35;11.80;90.10
31263;DHT22;17892;52.080;9.006;2024-03-08T15:26:02;11.70;89.90
31263;DHT22;17892;52.080;9.006;2024-03-08T15:28:29;11.70;90.60
31263;DHT22;17892;52.080;9.006;2024-03-08T15:31:03;11.70;90.30
31263;DHT22;17892;52.080;9.006;2024-03-08T15:33:35;11.70;90.30
31263;DHT22;17892;52.080;9.006;2024-03-08T15:36:17;11.70;90.70
31263;DHT22;17892;52.080;9.006;2024-03-08T15:38:50;11.70;90.80
31263;DHT22;17892;52.080;9.006;2024-03-08T15:41:16;11.60;90.30
31263;DHT22;17892;52.080;9.006;2024-03-08T15:43:43;11.50;90.20
31263;DHT22;17892;52.080;9.006;2024-03-08T15:46:09;11.40;90.70
31263;DHT22;17892;52.080;9.006;2024-03-08T15:48:36;11.40;90.20
31263;DHT22;17892;52.080;9.006;2024-03-08T15:51:03;11.40;90.70
31263;DHT22;17892;52.080;9.006;2024-03-08T15:53:33;11.30;90.70
31263;DHT22;17892;52.080;9.006;2024-03-08T15:56:00;11.30;91.10